Time;durP1;ratioP1;P1;durP2;ratioP2;P2;SDS_P1;SDS_P2;PMS_P1;PMS_P2;Temp;Humidity;BMP_temperature;BMP_pressure;BME280_temperature;BME280_humidity;BME280_pressure;Samples;Min_cycle;Max_cycle;Signal;HPM_P1;HPM_P2
2022/03/09 00:02:22;;;;;;;14.82;9.85;;;;;;;;;;5096327;28;20558;-68
2022/03/09 00:04:49;;;;;;;12.30;9.73;;;;;;;;;;5096755;28;20280;-67
2022/03/09 00:07:16;;;;;;;13.02;10.13;;;;;;;;;;5096154;28;20198;-68
2022/03/09 00:09:44;;;;;;;16.33;10.88;;;;;;;;;;5096374;28;20280;-68
2022/03/09 00:12:12;;;;;;;19.00;10.57;;;;;;;;;;5096329;28;20312;-67
2022/03/09 00:14:39;;;;;;;11.93;9.30;;;;;;;;;;5096341;28;20305;-68
2022/03/09 00:17:07;;;;;;;14.02;10.00;;;;;;;;;;5096071;28;20538;-67
2022/03/09 00:19:34;;;;;;;12.77;9.60;;;;;;;;;;5096931;28;20281;-67
2022/03/09 00:22:01;;;;;;;14.35;8.98;;;;;;;;;;5095695;28;20229;-67
2022/03/09 00:24:28;;;;;;;13.85;10.10;;;;;;;;;;5095999;28;20627;-67
2022/03/09 00:26:55;;;;;;;12.38;9.85;;;;;;;;;;5095828;28;20289;-67
2022/03/09 00:29:24;;;;;;;13.10;9.50;;;;;;;;;;5095529;28;20203;-67
2022/03/09 00:31:51;;;;;;;12.48;8.52;;;;;;;;;;5095450;28;20193;-67
2022/03/09 00:34:19;;;;;;;13.52;9.63;;;;;;;;;;5095388;28;20249;-67
2022/03/09 00:36:46;;;;;;;12.60;9.05;;;;;;;;;;5095653;28;20190;-68
2022/03/09 00:39:13;;;;;;;14.02;9.20;;;;;;;;;;5095609;28;20194;-67
2022/03/09 00:41:40;;;;;;;9.73;8.68;;;;;;;;;;5094990;28;20281;-68
2022/03/09 00:44:08;;;;;;;13.93;9.10;;;;;;;;;;5095313;28;20204;-68
2022/03/09 00:46:36;;;;;;;11.88;8.05;;;;;;;;;;5095492;28;20229;-68
2022/03/09 00:49:04;;;;;;;12.23;9.80;;;;;;;;;;5095099;28;20233;-67
2022/03/09 00:51:31;;;;;;;13.25;10.23;;;;;;;;;;5095407;28;20282;-68
2022/03/09 00:53:58;;;;;;;14.75;10.00;;;;;;;;;;5095382;28;20565;-68
2022/03/09 00:56:25;;;;;;;14.25;9.35;;;;;;;;;;5094978;28;20281;-67
2022/03/09 00:58:53;;;;;;;15.38;9.85;;;;;;;;;;5095376;28;20239;-68
2022/03/09 01:01:20;;;;;;;14.77;9.82;;;;;;;;;;5095235;28;20194;-67
2022/03/09 01:03:48;;;;;;;17.67;9.88;;;;;;;;;;5094954;28;20726;-68
2022/03/09 01:06:16;;;;;;;12.10;9.88;;;;;;;;;;5095810;28;20288;-67
2022/03/09 01:08:43;;;;;;;14.45;10.32;;;;;;;;;;5094884;28;20202;-68
2022/03/09 01:11:10;;;;;;;12.00;9.52;;;;;;;;;;5094619;28;20321;-68
2022/03/09 01:13:38;;;;;;;12.90;9.77;;;;;;;;;;5095003;28;20228;-68
2022/03/09 01:16:06;;;;;;;13.65;10.40;;;;;;;;;;5094574;28;20284;-68
2022/03/09 01:18:33;;;;;;;15.13;10.15;;;;;;;;;;5094890;28;20281;-68
2022/03/09 01:21:02;;;;;;;15.85;9.98;;;;;;;;;;5094879;28;20240;-68
2022/03/09 01:23:29;;;;;;;12.15;9.30;;;;;;;;;;5095373;28;20225;-68
2022/03/09 01:25:56;;;;;;;14.00;10.18;;;;;;;;;;5095143;28;20562;-68
2022/03/09 01:28:23;;;;;;;13.60;10.20;;;;;;;;;;5094698;28;20197;-68
2022/03/09 01:30:50;;;;;;;14.20;9.98;;;;;;;;;;5094963;28;20194;-68
2022/03/09 01:33:18;;;;;;;11.60;8.90;;;;;;;;;;5094507;28;20250;-67
2022/03/09 01:35:45;;;;;;;11.63;8.77;;;;;;;;;;5095111;28;20713;-68
2022/03/09 01:38:14;;;;;;;17.42;10.45;;;;;;;;;;5094185;28;20284;-67
2022/03/09 01:40:41;;;;;;;12.43;9.60;;;;;;;;;;5094879;28;20190;-68
2022/03/09 01:43:08;;;;;;;14.40;9.50;;;;;;;;;;5094131;28;20779;-68
2022/03/09 01:45:36;;;;;;;19.15;10.55;;;;;;;;;;5094155;28;20251;-68
2022/03/09 01:48:03;;;;;;;18.85;10.15;;;;;;;;;;5094483;28;20193;-67
2022/03/09 01:50:30;;;;;;;15.70;10.70;;;;;;;;;;5094670;28;20200;-67
2022/03/09 01:52:59;;;;;;;18.70;10.90;;;;;;;;;;5093044;28;20251;-68
2022/03/09 01:55:28;;;;;;;15.48;10.63;;;;;;;;;;5094160;28;20221;-68
2022/03/09 01:57:55;;;;;;;12.80;9.90;;;;;;;;;;5094373;28;20604;-68
2022/03/09 02:00:22;;;;;;;11.43;9.05;;;;;;;;;;5094212;28;20215;-67
2022/03/09 02:02:50;;;;;;;14.65;10.05;;;;;;;;;;5093744;28;20198;-67
2022/03/09 02:05:17;;;;;;;12.55;9.63;;;;;;;;;;5094135;28;20250;-67
2022/03/09 02:10:31;;;;;;;11.88;9.70;;;;;;;;;;5094097;28;20255;-67
2022/03/09 02:12:58;;;;;;;19.02;9.50;;;;;;;;;;5093710;28;20268;-67
2022/03/09 02:15:25;;;;;;;12.07;9.00;;;;;;;;;;5093569;28;20279;-67
2022/03/09 02:17:53;;;;;;;12.90;10.10;;;;;;;;;;5093850;28;20282;-66
2022/03/09 02:20:20;;;;;;;12.00;9.55;;;;;;;;;;5093635;28;20206;-67
2022/03/09 02:22:48;;;;;;;10.48;9.13;;;;;;;;;;5093899;28;20240;-67
2022/03/09 02:25:17;;;;;;;16.50;10.48;;;;;;;;;;5094160;28;20272;-67
2022/03/09 02:27:45;;;;;;;12.52;10.52;;;;;;;;;;5093754;28;20293;-66
2022/03/09 02:30:13;;;;;;;13.05;9.27;;;;;;;;;;5094078;28;20722;-67
2022/03/09 02:32:41;;;;;;;15.18;9.90;;;;;;;;;;5094108;28;20248;-68
2022/03/09 02:35:10;;;;;;;11.77;8.93;;;;;;;;;;5093655;28;20225;-67
2022/03/09 02:37:37;;;;;;;11.98;9.57;;;;;;;;;;5093655;28;20201;-67
2022/03/09 02:40:06;;;;;;;12.45;9.65;;;;;;;;;;5093612;28;20209;-68
2022/03/09 02:42:33;;;;;;;10.75;8.07;;;;;;;;;;5093280;28;20199;-67
2022/03/09 02:45:00;;;;;;;14.88;9.32;;;;;;;;;;5093636;28;20280;-68
2022/03/09 02:47:28;;;;;;;13.70;10.48;;;;;;;;;;5093600;28;20563;-67
2022/03/09 02:49:55;;;;;;;11.40;9.30;;;;;;;;;;5093666;28;20605;-67
2022/03/09 02:52:22;;;;;;;13.23;9.40;;;;;;;;;;5093520;28;20194;-66
2022/03/09 02:54:50;;;;;;;13.48;9.40;;;;;;;;;;5093572;28;20577;-67
2022/03/09 02:57:18;;;;;;;11.52;9.48;;;;;;;;;;5093633;28;20198;-67
2022/03/09 02:59:47;;;;;;;14.90;9.85;;;;;;;;;;5093220;28;20292;-67
2022/03/09 03:02:14;;;;;;;14.68;9.43;;;;;;;;;;5093908;28;20293;-67
2022/03/09 03:04:42;;;;;;;10.55;8.30;;;;;;;;;;5095879;28;20228;-68
2022/03/09 03:07:09;;;;;;;14.77;9.70;;;;;;;;;;5097511;28;20280;-67
2022/03/09 03:09:36;;;;;;;13.73;10.30;;;;;;;;;;5096953;28;20197;-67
2022/03/09 03:12:03;;;;;;;12.45;9.65;;;;;;;;;;5097784;28;20282;-67
2022/03/09 03:14:32;;;;;;;13.68;8.93;;;;;;;;;;5097316;28;20253;-68
2022/03/09 03:16:59;;;;;;;12.10;9.07;;;;;;;;;;5097014;28;20280;-67
2022/03/09 03:19:26;;;;;;;13.23;9.80;;;;;;;;;;5096883;28;20194;-67
2022/03/09 03:21:54;;;;;;;15.65;11.00;;;;;;;;;;5096924;28;20193;-67
2022/03/09 03:24:21;;;;;;;13.00;9.90;;;;;;;;;;5097112;28;20204;-67
2022/03/09 03:26:48;;;;;;;16.77;9.77;;;;;;;;;;5097232;28;20280;-67
2022/03/09 03:29:15;;;;;;;16.35;10.05;;;;;;;;;;5097047;28;20289;-68
2022/03/09 03:31:44;;;;;;;11.57;9.30;;;;;;;;;;5097064;28;20198;-67
2022/03/09 03:34:11;;;;;;;18.75;9.45;;;;;;;;;;5096552;28;20236;-67
2022/03/09 03:36:38;;;;;;;10.90;8.93;;;;;;;;;;5097006;28;20622;-68
2022/03/09 03:39:06;;;;;;;14.07;8.48;;;;;;;;;;5096694;28;20194;-68
2022/03/09 03:41:34;;;;;;;12.05;8.85;;;;;;;;;;5097067;28;20229;-68
2022/03/09 03:44:01;;;;;;;13.43;9.90;;;;;;;;;;5096419;28;20197;-68
2022/03/09 03:46:29;;;;;;;17.67;9.73;;;;;;;;;;5096751;28;20190;-68
2022/03/09 03:48:57;;;;;;;11.23;10.00;;;;;;;;;;5096690;28;20738;-67
2022/03/09 03:51:24;;;;;;;12.20;9.00;;;;;;;;;;5096641;28;20200;-67
2022/03/09 03:53:52;;;;;;;12.93;9.25;;;;;;;;;;5096542;28;20280;-66
2022/03/09 03:56:20;;;;;;;14.38;8.75;;;;;;;;;;5096489;28;20222;-66
2022/03/09 03:58:47;;;;;;;10.70;8.90;;;;;;;;;;5096141;28;20663;-68
2022/03/09 04:01:14;;;;;;;13.07;9.68;;;;;;;;;;5096193;28;20665;-67
2022/03/09 04:03:41;;;;;;;12.77;9.00;;;;;;;;;;5096308;28;20211;-67
2022/03/09 04:06:10;;;;;;;12.65;8.88;;;;;;;;;;5096393;28;20224;-67
2022/03/09 04:08:37;;;;;;;11.77;9.30;;;;;;;;;;5095881;28;20658;-68
2022/03/09 04:11:04;;;;;;;12.70;8.82;;;;;;;;;;5096319;28;20257;-66
2022/03/09 04:13:31;;;;;;;11.02;7.90;;;;;;;;;;5095784;28;20200;-67
2022/03/09 04:15:59;;;;;;;11.35;9.13;;;;;;;;;;5095109;28;20213;-67
2022/03/09 04:18:27;;;;;;;12.18;9.63;;;;;;;;;;5095744;28;20725;-66
2022/03/09 04:20:54;;;;;;;11.00;9.88;;;;;;;;;;5096426;28;20716;-68
2022/03/09 04:23:23;;;;;;;13.38;10.32;;;;;;;;;;5096019;28;20597;-67
2022/03/09 04:25:50;;;;;;;21.17;10.70;;;;;;;;;;5095691;28;20202;-67
2022/03/09 04:28:18;;;;;;;12.48;9.05;;;;;;;;;;5095965;28;20604;-66
2022/03/09 04:30:45;;;;;;;12.90;9.57;;;;;;;;;;5095827;28;20555;-67
2022/03/09 04:33:12;;;;;;;12.15;9.32;;;;;;;;;;5096038;28;20291;-67
2022/03/09 04:35:40;;;;;;;14.75;8.90;;;;;;;;;;5095612;28;20304;-66
2022/03/09 04:38:07;;;;;;;13.55;9.73;;;;;;;;;;5096064;28;20284;-67
2022/03/09 04:40:35;;;;;;;13.45;9.00;;;;;;;;;;5095811;28;20280;-68
2022/03/09 04:43:02;;;;;;;25.63;9.88;;;;;;;;;;5095397;28;20197;-67
2022/03/09 04:45:30;;;;;;;15.30;9.32;;;;;;;;;;5095247;28;20197;-67
2022/03/09 04:47:57;;;;;;;14.02;9.30;;;;;;;;;;5096466;28;20280;-68
2022/03/09 04:50:24;;;;;;;13.82;8.80;;;;;;;;;;5095517;28;20200;-67
2022/03/09 04:52:51;;;;;;;12.73;9.45;;;;;;;;;;5095204;28;20204;-67
2022/03/09 04:55:19;;;;;;;10.60;9.40;;;;;;;;;;5094987;28;20318;-67
2022/03/09 04:57:47;;;;;;;14.88;9.57;;;;;;;;;;5095882;28;20198;-67
2022/03/09 05:00:15;;;;;;;16.98;9.60;;;;;;;;;;5095575;28;20291;-72
2022/03/09 05:02:42;;;;;;;10.95;8.30;;;;;;;;;;5094926;28;20235;-67
2022/03/09 05:05:10;;;;;;;13.90;9.73;;;;;;;;;;5095162;28;20292;-66
2022/03/09 05:07:40;;;;;;;11.73;8.52;;;;;;;;;;5094874;28;20746;-66
2022/03/09 05:10:07;;;;;;;12.82;9.18;;;;;;;;;;5095215;28;20573;-66
2022/03/09 05:12:34;;;;;;;11.68;8.68;;;;;;;;;;5095711;28;20229;-67
2022/03/09 05:15:03;;;;;;;15.13;8.65;;;;;;;;;;5094540;28;20213;-67
2022/03/09 05:17:30;;;;;;;13.70;9.05;;;;;;;;;;5094694;28;20193;-66
2022/03/09 05:19:57;;;;;;;12.80;9.55;;;;;;;;;;5094830;28;20237;-66
2022/03/09 05:22:25;;;;;;;15.18;10.15;;;;;;;;;;5094580;28;20197;-66
2022/03/09 05:24:52;;;;;;;12.60;8.95;;;;;;;;;;5093297;28;20255;-66
2022/03/09 05:27:20;;;;;;;16.65;10.43;;;;;;;;;;5094062;28;20205;-66
2022/03/09 05:29:47;;;;;;;16.42;9.30;;;;;;;;;;5093589;28;20284;-66
2022/03/09 05:32:16;;;;;;;12.80;9.30;;;;;;;;;;5094442;28;20731;-67
2022/03/09 05:34:43;;;;;;;12.93;8.93;;;;;;;;;;5094426;28;20197;-66
2022/03/09 05:37:10;;;;;;;12.80;9.27;;;;;;;;;;5094442;28;20189;-67
2022/03/09 05:39:37;;;;;;;15.35;10.02;;;;;;;;;;5094590;28;20643;-67
2022/03/09 05:42:05;;;;;;;11.95;8.02;;;;;;;;;;5094163;28;20198;-66
2022/03/09 05:44:32;;;;;;;13.23;8.52;;;;;;;;;;5094331;28;20251;-66
2022/03/09 05:46:59;;;;;;;16.42;11.48;;;;;;;;;;5094454;28;20220;-67
2022/03/09 05:49:28;;;;;;;13.00;9.38;;;;;;;;;;5094405;28;20241;-66
2022/03/09 05:51:55;;;;;;;12.95;8.70;;;;;;;;;;5093852;28;20280;-67
2022/03/09 05:54:22;;;;;;;13.00;9.45;;;;;;;;;;5094034;28;20285;-68
2022/03/09 05:56:50;;;;;;;12.82;8.10;;;;;;;;;;5093573;28;20221;-66
2022/03/09 05:59:17;;;;;;;15.70;8.32;;;;;;;;;;5094197;28;20228;-66
2022/03/09 06:01:45;;;;;;;11.07;8.35;;;;;;;;;;5093692;28;20233;-67
2022/03/09 06:04:12;;;;;;;17.52;9.35;;;;;;;;;;5094099;28;20229;-67
2022/03/09 06:06:40;;;;;;;11.80;8.30;;;;;;;;;;5093973;28;20193;-66
2022/03/09 06:09:08;;;;;;;13.98;7.65;;;;;;;;;;5093930;28;20308;-66
2022/03/09 06:11:35;;;;;;;11.65;8.48;;;;;;;;;;5093470;28;20596;-67
2022/03/09 06:14:02;;;;;;;10.60;8.32;;;;;;;;;;5093506;28;20199;-67
2022/03/09 06:16:30;;;;;;;12.60;9.75;;;;;;;;;;5094532;28;20332;-67
2022/03/09 06:18:57;;;;;;;11.07;7.70;;;;;;;;;;5093633;28;20198;-67
2022/03/09 06:21:24;;;;;;;11.98;8.52;;;;;;;;;;5093815;28;20281;-66
2022/03/09 06:23:53;;;;;;;15.30;9.88;;;;;;;;;;5093581;28;20284;-66
2022/03/09 06:26:20;;;;;;;15.15;9.05;;;;;;;;;;5093415;28;20240;-67
2022/03/09 06:28:47;;;;;;;10.25;8.20;;;;;;;;;;5093792;28;20193;-70
2022/03/09 06:31:14;;;;;;;15.07;8.55;;;;;;;;;;5093186;28;20241;-67
2022/03/09 06:33:41;;;;;;;12.88;8.55;;;;;;;;;;5093352;28;20209;-67
2022/03/09 06:36:09;;;;;;;12.43;9.32;;;;;;;;;;5093504;28;20245;-67
2022/03/09 06:38:36;;;;;;;13.63;9.00;;;;;;;;;;5093465;28;20197;-67
2022/03/09 06:41:05;;;;;;;10.98;8.40;;;;;;;;;;5093736;28;20608;-66
2022/03/09 06:43:37;;;;;;;14.20;7.60;;;;;;;;;;5093652;28;20232;-67
2022/03/09 06:46:05;;;;;;;10.48;8.15;;;;;;;;;;5093674;28;20272;-67
2022/03/09 06:48:32;;;;;;;21.58;9.32;;;;;;;;;;5093898;28;20194;-67
2022/03/09 06:50:59;;;;;;;17.73;9.85;;;;;;;;;;5093485;28;20251;-66
2022/03/09 06:53:26;;;;;;;16.10;8.93;;;;;;;;;;5093498;28;20232;-67
2022/03/09 06:55:54;;;;;;;13.73;9.43;;;;;;;;;;5093033;28;20256;-66
2022/03/09 06:58:23;;;;;;;12.07;8.55;;;;;;;;;;5093170;28;20194;-67
2022/03/09 07:00:50;;;;;;;11.52;9.75;;;;;;;;;;5093556;28;20337;-67
2022/03/09 07:03:18;;;;;;;16.95;9.93;;;;;;;;;;5093144;28;20280;-67
2022/03/09 07:05:45;;;;;;;11.40;8.45;;;;;;;;;;5093617;28;20280;-67
2022/03/09 07:08:12;;;;;;;12.10;7.78;;;;;;;;;;5093153;28;20245;-67
2022/03/09 07:10:39;;;;;;;12.35;7.90;;;;;;;;;;5093230;28;20316;-67
2022/03/09 07:13:07;;;;;;;11.43;9.00;;;;;;;;;;5093091;28;20660;-66
2022/03/09 07:15:35;;;;;;;13.18;7.53;;;;;;;;;;5092820;28;20304;-66
2022/03/09 07:18:02;;;;;;;11.93;7.65;;;;;;;;;;5092955;28;20709;-67
2022/03/09 07:20:30;;;;;;;18.20;7.97;;;;;;;;;;5093771;28;20226;-67
2022/03/09 07:22:57;;;;;;;12.65;8.13;;;;;;;;;;5092849;28;20233;-66
2022/03/09 07:25:24;;;;;;;10.43;7.35;;;;;;;;;;5093101;28;20388;-67
2022/03/09 07:27:52;;;;;;;12.23;8.13;;;;;;;;;;5092680;28;20208;-66
2022/03/09 07:30:19;;;;;;;16.55;9.38;;;;;;;;;;5093140;28;20284;-67
2022/03/09 07:32:47;;;;;;;14.93;7.50;;;;;;;;;;5093150;28;20232;-67
2022/03/09 07:35:15;;;;;;;15.32;7.97;;;;;;;;;;5092698;28;20197;-67
2022/03/09 07:37:42;;;;;;;12.48;7.78;;;;;;;;;;5093029;28;20608;-67
2022/03/09 07:40:10;;;;;;;13.15;8.93;;;;;;;;;;5092566;28;20212;-66
2022/03/09 07:42:37;;;;;;;22.20;8.82;;;;;;;;;;5092934;28;20285;-67
2022/03/09 07:45:06;;;;;;;12.93;9.05;;;;;;;;;;5093864;28;20233;-67
2022/03/09 07:47:34;;;;;;;14.18;8.68;;;;;;;;;;5092815;28;20294;-67
2022/03/09 07:50:02;;;;;;;17.38;8.32;;;;;;;;;;5092611;28;20197;-67
2022/03/09 07:52:29;;;;;;;12.75;8.40;;;;;;;;;;5096357;28;20200;-67
2022/03/09 07:54:57;;;;;;;15.10;8.50;;;;;;;;;;5096720;28;20197;-67
2022/03/09 07:57:24;;;;;;;17.60;7.80;;;;;;;;;;5096460;28;20305;-67
2022/03/09 07:59:51;;;;;;;20.75;12.07;;;;;;;;;;5096434;28;20281;-67
2022/03/09 08:02:18;;;;;;;12.98;9.07;;;;;;;;;;5096166;28;20620;-66
2022/03/09 08:04:45;;;;;;;8.50;6.95;;;;;;;;;;5096242;28;20198;-66
2022/03/09 08:07:14;;;;;;;12.57;8.32;;;;;;;;;;5095904;28;20674;-66
2022/03/09 08:09:41;;;;;;;9.80;7.50;;;;;;;;;;5096306;28;20194;-66
2022/03/09 08:12:11;;;;;;;8.60;7.70;;;;;;;;;;5096419;28;20327;-66
2022/03/09 08:14:38;;;;;;;12.70;8.10;;;;;;;;;;5095757;28;20698;-67
2022/03/09 08:17:05;;;;;;;11.40;8.88;;;;;;;;;;5095858;28;20237;-66
2022/03/09 08:19:34;;;;;;;10.43;7.97;;;;;;;;;;5095666;28;20197;-66
2022/03/09 08:22:01;;;;;;;10.27;7.53;;;;;;;;;;5096087;28;20194;-66
2022/03/09 08:24:30;;;;;;;11.40;9.05;;;;;;;;;;5095889;28;20647;-66
2022/03/09 08:26:57;;;;;;;10.02;8.35;;;;;;;;;;5095964;28;20237;-66
2022/03/09 08:29:24;;;;;;;9.32;6.30;;;;;;;;;;5095529;28;20197;-66
2022/03/09 08:31:52;;;;;;;13.25;7.13;;;;;;;;;;5096128;28;20285;-67
2022/03/09 08:34:19;;;;;;;15.35;7.03;;;;;;;;;;5095845;28;20260;-66
2022/03/09 08:36:46;;;;;;;11.30;7.63;;;;;;;;;;5095636;28;20301;-66
2022/03/09 08:39:13;;;;;;;12.82;7.63;;;;;;;;;;5095293;28;20724;-67
2022/03/09 08:41:44;;;;;;;12.95;7.38;;;;;;;;;;5095631;28;20281;-67
2022/03/09 08:44:11;;;;;;;11.55;7.18;;;;;;;;;;5095562;28;20183;-67
2022/03/09 08:46:38;;;;;;;7.20;6.28;;;;;;;;;;5095536;28;20281;-67
2022/03/09 08:49:05;;;;;;;8.38;6.47;;;;;;;;;;5095396;28;20246;-67
2022/03/09 08:51:33;;;;;;;13.50;6.97;;;;;;;;;;5095133;28;20203;-66
2022/03/09 08:54:00;;;;;;;7.70;6.15;;;;;;;;;;5094954;28;20194;-67
2022/03/09 08:56:28;;;;;;;14.48;7.18;;;;;;;;;;5095227;28;20265;-67
2022/03/09 08:59:02;;;;;;;19.67;6.78;;;;;;;;;;5094872;28;20194;-66
2022/03/09 09:01:29;;;;;;;7.18;6.35;;;;;;;;;;5095540;28;20595;-67
2022/03/09 09:04:02;;;;;;;10.75;6.30;;;;;;;;;;5095054;28;20225;-67
2022/03/09 09:06:30;;;;;;;10.00;7.78;;;;;;;;;;5095174;28;20273;-66
2022/03/09 09:08:57;;;;;;;10.35;7.05;;;;;;;;;;5094579;28;20649;-66
2022/03/09 09:11:24;;;;;;;7.10;6.40;;;;;;;;;;5095281;28;20224;-67
2022/03/09 09:13:51;;;;;;;6.45;5.82;;;;;;;;;;5093954;28;20194;-67
2022/03/09 09:16:20;;;;;;;10.93;6.13;;;;;;;;;;5094548;28;20679;-66
2022/03/09 09:18:47;;;;;;;8.80;6.95;;;;;;;;;;5095041;28;20200;-67
2022/03/09 09:21:15;;;;;;;19.98;7.15;;;;;;;;;;5094528;28;20652;-66
2022/03/09 09:23:42;;;;;;;12.38;6.60;;;;;;;;;;5094805;28;20277;-67
2022/03/09 09:26:09;;;;;;;8.27;6.40;;;;;;;;;;5094666;28;20205;-66
2022/03/09 09:28:36;;;;;;;12.90;7.32;;;;;;;;;;5094262;28;20198;-67
2022/03/09 09:31:04;;;;;;;12.52;7.20;;;;;;;;;;5094815;28;20221;-67
2022/03/09 09:33:32;;;;;;;8.05;6.38;;;;;;;;;;5094087;28;20200;-68
2022/03/09 09:35:59;;;;;;;18.02;6.60;;;;;;;;;;5095065;28;20190;-67
2022/03/09 09:38:27;;;;;;;7.75;6.95;;;;;;;;;;5094133;28;20713;-66
2022/03/09 09:40:55;;;;;;;8.20;7.40;;;;;;;;;;5094205;28;20207;-66
2022/03/09 09:43:24;;;;;;;9.13;6.82;;;;;;;;;;5093970;28;20252;-67
2022/03/09 09:45:51;;;;;;;9.10;6.57;;;;;;;;;;5094706;28;20348;-67
2022/03/09 09:48:19;;;;;;;8.75;7.05;;;;;;;;;;5094656;28;20198;-67
2022/03/09 09:50:51;;;;;;;8.10;6.57;;;;;;;;;;5094310;28;20245;-67
2022/03/09 09:53:18;;;;;;;9.45;7.55;;;;;;;;;;5094335;28;20518;-67
2022/03/09 09:55:45;;;;;;;14.38;7.38;;;;;;;;;;5093908;28;20233;-67
2022/03/09 09:58:13;;;;;;;10.52;7.38;;;;;;;;;;5094009;28;20305;-66
2022/03/09 10:00:40;;;;;;;7.10;6.22;;;;;;;;;;5094141;28;20197;-66
2022/03/09 10:03:07;;;;;;;7.40;6.47;;;;;;;;;;5094026;28;20256;-67
2022/03/09 10:05:35;;;;;;;11.63;6.50;;;;;;;;;;5093764;28;20282;-67
2022/03/09 10:08:18;;;;;;;19.17;7.25;;;;;;;;;;5093886;28;20238;-67
2022/03/09 10:10:46;;;;;;;8.50;6.97;;;;;;;;;;5093570;28;20228;-67
2022/03/09 10:13:14;;;;;;;10.13;7.30;;;;;;;;;;5093036;28;20543;-67
2022/03/09 10:15:42;;;;;;;7.78;6.95;;;;;;;;;;5094137;28;20198;-67
2022/03/09 10:18:13;;;;;;;12.80;7.00;;;;;;;;;;5093351;28;20220;-66
2022/03/09 10:20:41;;;;;;;14.05;7.40;;;;;;;;;;5093453;28;20242;-66
2022/03/09 10:23:09;;;;;;;14.43;6.95;;;;;;;;;;5093502;28;20283;-67
2022/03/09 10:25:38;;;;;;;9.30;6.82;;;;;;;;;;5093749;28;20201;-67
2022/03/09 10:28:07;;;;;;;8.15;6.30;;;;;;;;;;5093757;28;20641;-67
2022/03/09 10:30:35;;;;;;;7.90;6.55;;;;;;;;;;5093538;28;20195;-67
2022/03/09 10:33:09;;;;;;;6.88;6.15;;;;;;;;;;5094433;28;20231;-66
2022/03/09 10:35:41;;;;;;;10.65;6.78;;;;;;;;;;5093346;28;20185;-67
2022/03/09 10:38:09;;;;;;;7.65;6.47;;;;;;;;;;5093266;28;20692;-67
2022/03/09 10:40:42;;;;;;;9.70;6.65;;;;;;;;;;5093738;28;20206;-67
2022/03/09 10:43:13;;;;;;;11.75;6.75;;;;;;;;;;5093672;28;20189;-67
2022/03/09 10:45:55;;;;;;;6.90;6.20;;;;;;;;;;5093524;28;20552;-67
2022/03/09 10:48:23;;;;;;;8.45;6.55;;;;;;;;;;5093292;28;20286;-67
2022/03/09 10:50:51;;;;;;;10.02;6.70;;;;;;;;;;5093149;28;20246;-67
2022/03/09 10:53:19;;;;;;;9.60;6.70;;;;;;;;;;5093651;28;20279;-67
2022/03/09 10:55:49;;;;;;;10.38;7.15;;;;;;;;;;5093372;28;20192;-66
2022/03/09 10:58:18;;;;;;;8.90;6.93;;;;;;;;;;5093520;28;20567;-66
2022/03/09 11:00:46;;;;;;;8.48;6.45;;;;;;;;;;5093025;28;20200;-66
2022/03/09 11:03:14;;;;;;;8.63;7.00;;;;;;;;;;5093416;28;20197;-66
2022/03/09 11:05:52;;;;;;;9.80;7.05;;;;;;;;;;5092948;28;20249;-67
2022/03/09 11:08:20;;;;;;;11.80;7.10;;;;;;;;;;5093651;28;20205;-66
2022/03/09 11:10:49;;;;;;;10.40;7.35;;;;;;;;;;5093295;28;20236;-66
2022/03/09 11:13:17;;;;;;;8.73;7.35;;;;;;;;;;5093327;28;20234;-66
2022/03/09 11:15:47;;;;;;;10.90;8.40;;;;;;;;;;5093304;28;20194;-67
2022/03/09 11:18:14;;;;;;;12.00;7.32;;;;;;;;;;5092864;28;20217;-67
2022/03/09 11:20:42;;;;;;;10.70;7.30;;;;;;;;;;5093225;28;20192;-66
2022/03/09 11:23:09;;;;;;;8.60;7.40;;;;;;;;;;5093164;28;20232;-67
2022/03/09 11:25:37;;;;;;;8.25;7.28;;;;;;;;;;5095276;28;20932;-66
2022/03/09 11:28:07;;;;;;;8.52;6.20;;;;;;;;;;5096722;28;20198;-67
2022/03/09 11:30:34;;;;;;;9.27;7.30;;;;;;;;;;5096902;28;20277;-66
2022/03/09 11:33:03;;;;;;;8.80;7.80;;;;;;;;;;5096601;28;20202;-66
2022/03/09 11:35:48;;;;;;;8.90;7.38;;;;;;;;;;5096524;28;20223;-67
2022/03/09 11:38:34;;;;;;;11.87;7.13;;;;;;;;;;5096789;28;20207;-66
2022/03/09 11:41:17;;;;;;;10.43;8.05;;;;;;;;;;5096316;28;20451;-67
2022/03/09 11:43:46;;;;;;;9.00;6.90;;;;;;;;;;5097012;28;20270;-67
2022/03/09 11:46:13;;;;;;;9.20;8.00;;;;;;;;;;5096315;28;20228;-67
2022/03/09 11:48:50;;;;;;;11.63;7.00;;;;;;;;;;5096401;28;20242;-68
2022/03/09 11:51:17;;;;;;;7.43;6.50;;;;;;;;;;5096544;28;20231;-67
2022/03/09 11:53:47;;;;;;;9.57;7.00;;;;;;;;;;5096515;28;20200;-66
2022/03/09 11:56:39;;;;;;;10.20;9.20;;;;;;;;;;5096633;28;20265;-66
2022/03/09 11:59:11;;;;;;;7.30;6.60;;;;;;;;;;5097297;28;20192;-67
2022/03/09 12:01:56;;;;;;;11.73;7.45;;;;;;;;;;5095947;28;20292;-67
2022/03/09 12:04:42;;;;;;;8.00;6.25;;;;;;;;;;5096067;28;20239;-67
2022/03/09 12:07:10;;;;;;;7.63;6.93;;;;;;;;;;5096266;28;20257;-67
2022/03/09 12:09:57;;;;;;;9.80;7.40;;;;;;;;;;5096235;28;20241;-67
2022/03/09 12:12:24;;;;;;;8.68;7.60;;;;;;;;;;5097073;28;20674;-67
2022/03/09 12:15:02;;;;;;;8.85;7.45;;;;;;;;;;5096152;28;20224;-67
2022/03/09 12:17:29;;;;;;;8.53;6.23;;;;;;;;;;5096134;28;20209;-67
2022/03/09 12:20:15;;;;;;;11.00;6.80;;;;;;;;;;5096052;28;20493;-67
2022/03/09 12:22:59;;;;;;;9.27;7.07;;;;;;;;;;5095703;28;20201;-67
2022/03/09 12:25:39;;;;;;;10.83;7.90;;;;;;;;;;5095314;28;20340;-68
2022/03/09 12:28:25;;;;;;;9.30;6.85;;;;;;;;;;5095562;28;20534;-67
2022/03/09 12:30:54;;;;;;;7.38;6.40;;;;;;;;;;5095449;28;20287;-66
2022/03/09 12:33:23;;;;;;;8.10;6.68;;;;;;;;;;5095785;28;20265;-67
2022/03/09 12:35:50;;;;;;;7.40;6.40;;;;;;;;;;5095174;28;20193;-66
2022/03/09 12:38:18;;;;;;;7.85;6.30;;;;;;;;;;5095136;28;20224;-66
2022/03/09 12:40:46;;;;;;;7.75;6.80;;;;;;;;;;5095684;28;20197;-68
2022/03/09 12:43:13;;;;;;;7.45;6.65;;;;;;;;;;5095464;28;20197;-67
2022/03/09 12:45:55;;;;;;;7.23;6.33;;;;;;;;;;5095547;28;20572;-66
2022/03/09 12:48:22;;;;;;;8.15;7.35;;;;;;;;;;5095687;28;20539;-66
2022/03/09 12:50:50;;;;;;;9.13;7.93;;;;;;;;;;5095285;28;20197;-66
2022/03/09 12:53:19;;;;;;;9.35;7.10;;;;;;;;;;5095007;28;20534;-66
2022/03/09 12:55:47;;;;;;;10.77;6.43;;;;;;;;;;5094847;28;20193;-66
2022/03/09 12:58:22;;;;;;;7.40;6.70;;;;;;;;;;5094646;28;20221;-73
2022/03/09 13:00:49;;;;;;;9.20;7.60;;;;;;;;;;5095672;28;20748;-67
2022/03/09 13:03:18;;;;;;;9.17;7.00;;;;;;;;;;5094760;28;20523;-68
2022/03/09 13:05:45;;;;;;;10.10;6.80;;;;;;;;;;5095147;28;20428;-67
2022/03/09 13:08:14;;;;;;;11.30;7.57;;;;;;;;;;5094910;28;20447;-68
2022/03/09 13:10:43;;;;;;;10.53;6.23;;;;;;;;;;5094720;28;20491;-67
2022/03/09 13:13:10;;;;;;;10.43;7.50;;;;;;;;;;5094678;28;20485;-67
2022/03/09 13:15:39;;;;;;;7.33;6.63;;;;;;;;;;5094027;28;20474;-67
2022/03/09 13:18:06;;;;;;;12.23;7.50;;;;;;;;;;5094134;28;20471;-68
2022/03/09 13:20:37;;;;;;;7.15;6.45;;;;;;;;;;5093876;28;20936;-69
2022/03/09 13:23:04;;;;;;;8.73;6.40;;;;;;;;;;5094429;28;20540;-67
2022/03/09 13:25:32;;;;;;;9.60;7.20;;;;;;;;;;5095021;28;20821;-67
2022/03/09 13:28:04;;;;;;;8.23;7.43;;;;;;;;;;5093902;28;20443;-67
2022/03/09 13:30:31;;;;;;;8.17;7.27;;;;;;;;;;5094259;28;20932;-67
2022/03/09 13:33:11;;;;;;;8.90;6.47;;;;;;;;;;5094090;28;20499;-67
2022/03/09 13:35:47;;;;;;;10.73;7.35;;;;;;;;;;5094268;28;20931;-67
2022/03/09 13:38:24;;;;;;;10.23;7.63;;;;;;;;;;5094702;28;20231;-68
2022/03/09 13:40:52;;;;;;;8.67;7.70;;;;;;;;;;5094305;28;20201;-69
2022/03/09 13:43:27;;;;;;;9.50;7.37;;;;;;;;;;5093917;28;20446;-68
2022/03/09 13:45:55;;;;;;;8.80;7.00;;;;;;;;;;5093754;28;20439;-67
2022/03/09 13:48:23;;;;;;;7.17;6.07;;;;;;;;;;5093482;28;20483;-67
2022/03/09 13:51:00;;;;;;;7.70;6.73;;;;;;;;;;5094669;28;20504;-68
2022/03/09 13:53:32;;;;;;;10.50;6.50;;;;;;;;;;5093883;28;20927;-68
2022/03/09 13:55:59;;;;;;;9.57;7.07;;;;;;;;;;5093808;28;20424;-68
2022/03/09 13:58:28;;;;;;;7.97;6.73;;;;;;;;;;5093898;28;20550;-68
2022/03/09 14:01:04;;;;;;;7.40;6.67;;;;;;;;;;5094029;28;20484;-68
2022/03/09 14:03:39;;;;;;;8.33;6.83;;;;;;;;;;5093542;28;20453;-68
2022/03/09 14:06:14;;;;;;;8.17;6.50;;;;;;;;;;5094100;28;20790;-68
2022/03/09 14:08:42;;;;;;;7.63;6.73;;;;;;;;;;5093889;28;20431;-68
2022/03/09 14:11:13;;;;;;;9.93;7.10;;;;;;;;;;5093593;28;20562;-68
2022/03/09 14:13:56;;;;;;;7.30;6.20;;;;;;;;;;5093438;28;20501;-67
2022/03/09 14:16:23;;;;;;;10.13;6.90;;;;;;;;;;5093345;28;20439;-68
2022/03/09 14:18:50;;;;;;;12.83;7.80;;;;;;;;;;5093592;28;20566;-68
2022/03/09 14:21:19;;;;;;;7.57;6.60;;;;;;;;;;5093404;28;20518;-67
2022/03/09 14:23:48;;;;;;;9.53;7.03;;;;;;;;;;5093187;28;20483;-68
2022/03/09 14:26:15;;;;;;;7.00;6.30;;;;;;;;;;5093532;28;20447;-68
2022/03/09 14:28:42;;;;;;;8.07;6.80;;;;;;;;;;5092931;28;20471;-69
2022/03/09 14:31:10;;;;;;;10.00;6.87;;;;;;;;;;5093253;28;20473;-68
2022/03/09 14:33:37;;;;;;;9.10;6.30;;;;;;;;;;5093373;28;20963;-68
2022/03/09 14:36:06;;;;;;;9.03;7.10;;;;;;;;;;5093559;28;20540;-67
2022/03/09 14:38:39;;;;;;;7.38;6.30;;;;;;;;;;5093474;28;20482;-68
2022/03/09 14:41:07;;;;;;;7.50;6.33;;;;;;;;;;5093774;28;20250;-68
2022/03/09 14:43:34;;;;;;;8.87;7.10;;;;;;;;;;5093318;28;20530;-68
2022/03/09 14:46:01;;;;;;;12.37;7.40;;;;;;;;;;5092979;28;20522;-70